Time;durP1;ratioP1;P1;durP2;ratioP2;P2;SDS_P1;SDS_P2;PMS_P1;PMS_P2;Temp;Humidity;BMP_temperature;BMP_pressure;BME280_temperature;BME280_humidity;BME280_pressure;Samples;Min_cycle;Max_cycle;Signal;HPM_P1;HPM_P2
2021/12/07 00:53:05;;;;;;;9.48;6.10;;;5.00;58.60;;;2.78;65.10;100856.41;8609961;23;20152;-91
2021/12/07 00:57:32;;;;;;;9.90;6.53;;;4.90;59.00;;;2.79;64.83;100852.97;8255863;28;20128;-91
2021/12/07 01:01:57;;;;;;;10.18;6.40;;;5.10;58.80;;;2.62;64.93;100833.53;8303374;28;20140;-91
2021/12/07 01:06:32;;;;;;;9.73;5.97;;;5.00;58.50;;;2.69;65.22;100862.59;8297133;28;20129;-90
2021/12/07 01:25:01;;;;;;;7.70;5.95;;;4.50;58.50;;;2.45;65.09;100838.16;8295860;28;20116;-89
2021/12/07 01:29:26;;;;;;;10.45;5.85;;;4.70;58.60;;;2.51;64.95;100847.50;8288172;28;20132;-88
2021/12/07 01:39:29;;;;;;;9.63;6.90;;;4.50;58.40;;;2.69;64.86;100869.50;8284868;28;20124;-89
2021/12/07 01:43:49;;;;;;;10.15;6.53;;;4.60;58.40;;;2.77;64.94;100876.19;8300717;28;20133;-87
2021/12/07 01:49:41;;;;;;;9.80;6.55;;;4.60;58.40;;;2.77;65.37;100880.50;8295011;28;20133;-88
2021/12/07 01:57:55;;;;;;;10.43;6.28;;;4.50;58.40;;;2.69;64.94;100861.75;8306045;28;20045;-87
2021/12/07 02:02:20;;;;;;;13.75;6.85;;;4.40;58.30;;;2.61;64.80;100860.19;8296338;28;20132;-88
2021/12/07 02:06:42;;;;;;;9.27;6.18;;;4.40;58.60;;;2.54;64.88;100839.72;8291392;28;20144;-88
2021/12/07 02:11:04;;;;;;;8.65;5.78;;;4.30;58.20;;;2.50;65.08;100831.19;8275240;28;20164;-88
2021/12/07 02:15:29;;;;;;;10.43;6.50;;;4.30;58.20;;;2.45;64.99;100825.28;8292687;28;20657;-88
2021/12/07 02:19:50;;;;;;;12.70;6.75;;;4.10;58.20;;;2.46;64.91;100831.28;8283549;28;20137;-88
2021/12/07 02:24:12;;;;;;;9.57;6.63;;;4.00;58.20;;;2.44;65.07;100826.19;8297032;28;20558;-89
2021/12/07 02:28:38;;;;;;;10.65;6.53;;;4.20;58.30;;;2.40;64.66;100811.63;8291786;28;20132;-88
2021/12/07 02:33:00;;;;;;;10.05;5.88;;;4.10;58.40;;;2.37;64.87;100819.44;8292580;28;20132;-88
2021/12/07 02:37:31;;;;;;;8.60;6.38;;;4.10;58.30;;;2.32;65.02;100823.81;8294782;28;20129;-88
2021/12/07 02:41:53;;;;;;;11.00;6.68;;;4.10;58.30;;;2.26;64.83;100821.38;8292643;28;20570;-90
2021/12/07 02:46:16;;;;;;;12.20;7.35;;;4.00;58.30;;;2.24;65.00;100820.56;8292640;28;20129;-90
2021/12/07 02:50:37;;;;;;;10.65;6.45;;;4.00;58.30;;;2.08;65.18;100810.56;8291290;28;20137;-89
2021/12/07 02:54:59;;;;;;;12.20;7.47;;;3.80;58.30;;;2.04;64.87;100813.22;8283089;28;20467;-89
2021/12/07 02:59:27;;;;;;;11.98;6.75;;;3.90;58.50;;;2.08;65.23;100822.56;8289287;28;20128;-89
2021/12/07 03:03:57;;;;;;;13.05;8.15;;;3.90;58.50;;;2.04;64.95;100810.63;8291190;28;20128;-89
2021/12/07 03:27:07;;;;;;;15.52;9.13;;;3.80;58.90;;;1.91;65.10;100803.13;8299446;23;20136;-81
2021/12/07 03:31:30;;;;;;;14.05;7.68;;;3.80;58.90;;;1.94;65.59;100799.66;8299350;28;20124;-81
2021/12/07 03:35:53;;;;;;;16.00;8.82;;;3.80;58.90;;;2.05;65.43;100820.06;8293895;28;20122;-81
2021/12/07 03:40:15;;;;;;;15.23;8.82;;;3.80;58.90;;;2.05;65.44;100833.78;8290169;28;20581;-81
2021/12/07 03:44:37;;;;;;;15.88;7.95;;;3.90;59.40;;;2.03;65.55;100817.53;8277250;28;20554;-81
2021/12/07 03:49:00;;;;;;;14.65;8.45;;;3.80;59.00;;;2.06;65.44;100832.06;8268530;28;20130;-82
2021/12/07 03:53:22;;;;;;;13.65;8.48;;;3.90;59.00;;;2.04;65.47;100821.78;8271298;28;20133;-82
2021/12/07 03:57:44;;;;;;;17.45;9.30;;;3.90;59.10;;;2.16;65.42;100839.59;8294990;28;20387;-82
2021/12/07 04:02:07;;;;;;;15.32;8.38;;;3.90;59.10;;;2.13;65.49;100823.34;8301642;28;20105;-82
2021/12/07 04:06:31;;;;;;;13.38;8.68;;;3.90;59.10;;;2.18;65.61;100836.97;8296877;28;20145;-82
2021/12/07 04:10:55;;;;;;;16.52;10.05;;;3.90;59.00;;;2.09;65.24;100819.97;8264286;28;20129;-82
2021/12/07 04:15:18;;;;;;;17.38;9.07;;;4.00;59.10;;;2.18;65.54;100831.81;8285112;28;20148;-82
2021/12/07 04:19:40;;;;;;;14.93;8.13;;;4.00;59.10;;;2.17;65.55;100817.25;8282702;28;20065;-83
2021/12/07 04:24:02;;;;;;;13.73;7.90;;;4.00;59.10;;;2.20;65.53;100823.19;8291912;28;20173;-82
2021/12/07 04:28:24;;;;;;;14.27;8.57;;;4.00;59.10;;;2.21;65.33;100818.88;8284193;28;20132;-81
2021/12/07 04:32:47;;;;;;;18.02;9.05;;;4.10;59.10;;;2.24;65.76;100823.13;8284334;28;20056;-81
2021/12/07 04:37:09;;;;;;;17.20;9.40;;;4.10;59.20;;;2.36;65.63;100843.53;8288615;28;20134;-81
2021/12/07 04:41:34;;;;;;;20.98;10.70;;;4.10;59.10;;;2.29;65.60;100835.03;8301039;28;20459;-81
2021/12/07 04:46:17;;;;;;;16.98;9.70;;;4.20;59.20;;;2.28;65.36;100823.06;8299175;28;20578;-82
2021/12/07 05:00:11;;;;;;;20.20;12.07;;;4.10;59.00;;;2.19;65.37;100821.50;8274595;28;20041;-81
2021/12/07 05:04:35;;;;;;;17.00;10.57;;;4.10;59.00;;;2.29;65.57;100829.88;8282457;28;20137;-83
2021/12/07 05:13:56;;;;;;;20.55;11.32;;;4.10;58.90;;;2.22;65.55;100812.88;8311548;28;20133;-82
2021/12/07 05:18:54;;;;;;;19.60;11.43;;;4.10;59.00;;;2.18;65.88;100803.50;8315195;28;20041;-82
2021/12/07 05:41:59;;;;;;;18.45;10.25;;;4.00;59.20;;;1.98;65.44;100801.31;8279566;28;20053;-83
2021/12/07 05:46:21;;;;;;;18.65;10.45;;;3.80;58.60;;;1.91;65.77;100797.97;8275714;28;20529;-82
2021/12/07 05:50:43;;;;;;;22.08;12.38;;;3.80;58.70;;;2.03;65.45;100817.53;8275927;28;20040;-84
2021/12/07 05:55:06;;;;;;;17.00;9.52;;;3.90;58.80;;;1.95;65.53;100806.50;8239348;28;20513;-84
2021/12/07 05:59:28;;;;;;;19.52;10.80;;;3.90;58.80;;;2.02;65.18;100838.13;8247964;28;20061;-84
2021/12/07 06:03:50;;;;;;;17.35;10.93;;;3.90;58.70;;;1.87;65.33;100816.09;8239698;28;20384;-83
2021/12/07 06:08:12;;;;;;;20.35;11.43;;;3.90;58.70;;;1.97;65.60;100835.63;8253771;28;20056;-84
2021/12/07 06:12:34;;;;;;;18.23;10.02;;;3.80;58.60;;;1.99;65.31;100836.47;8242127;28;20493;-82
2021/12/07 06:16:55;;;;;;;19.58;11.02;;;3.90;58.60;;;1.93;65.44;100846.88;8266792;28;20049;-83
2021/12/07 06:21:20;;;;;;;22.25;11.77;;;3.80;58.50;;;1.89;65.46;100851.25;8253962;28;20390;-85
2021/12/07 06:25:43;;;;;;;20.98;11.20;;;3.80;58.50;;;1.86;65.30;100848.69;8240610;28;20495;-86
2021/12/07 06:30:07;;;;;;;17.63;9.98;;;3.80;58.50;;;1.77;65.30;100833.44;8261771;28;20074;-86
2021/12/07 06:34:33;;;;;;;20.00;10.10;;;3.70;58.40;;;1.75;65.36;100836.00;8283135;28;20105;-86
2021/12/07 06:38:55;;;;;;;19.38;10.55;;;3.70;58.40;;;1.84;65.25;100847.06;8270547;28;20538;-85
2021/12/07 06:43:16;;;;;;;20.52;10.13;;;3.70;58.40;;;1.73;65.61;100840.38;8289734;28;20046;-85
2021/12/07 06:47:39;;;;;;;18.75;9.48;;;3.70;58.40;;;1.75;65.24;100861.75;8282484;28;20561;-85
2021/12/07 06:52:02;;;;;;;18.08;10.13;;;3.50;58.40;;;1.69;65.27;100855.88;8280773;28;20175;-84
2021/12/07 06:56:28;;;;;;;17.85;10.43;;;3.60;58.50;;;1.56;64.98;100844.91;8298209;28;20057;-86
2021/12/07 07:00:49;;;;;;;18.58;9.68;;;3.60;58.40;;;1.61;65.32;100855.16;8294267;28;20046;-86
2021/12/07 07:05:12;;;;;;;17.23;9.95;;;3.60;58.50;;;1.61;65.32;100863.72;8295070;28;20044;-82
2021/12/07 07:09:34;;;;;;;18.13;9.63;;;3.50;58.50;;;1.64;65.33;100881.69;8301517;28;20053;-90
2021/12/07 07:13:56;;;;;;;21.25;11.75;;;3.50;58.50;;;1.59;65.48;100869.75;8292930;28;20071;-88
2021/12/07 07:18:17;;;;;;;16.25;10.25;;;3.50;58.60;;;1.47;65.49;100863.09;8277834;28;20053;-88
2021/12/07 07:22:40;;;;;;;19.25;11.15;;;3.50;58.50;;;1.51;65.21;100875.03;8285727;28;20470;-83
2021/12/07 07:27:02;;;;;;;22.73;11.98;;;3.40;58.60;;;1.56;65.36;100891.25;8281327;28;20121;-88
2021/12/07 07:31:24;;;;;;;20.23;10.52;;;3.50;58.70;;;1.50;65.57;100879.31;8287655;28;20559;-86
2021/12/07 07:35:47;;;;;;;20.63;10.90;;;3.40;58.70;;;1.49;65.55;100890.50;8286085;28;20044;-86
2021/12/07 07:40:15;;;;;;;24.45;12.35;;;3.30;58.70;;;1.58;65.64;100909.25;8285899;28;20056;-82
2021/12/07 07:44:37;;;;;;;20.05;10.80;;;3.40;58.80;;;1.57;65.29;100913.56;8310465;28;20041;-82
2021/12/07 07:49:00;;;;;;;18.52;10.75;;;3.30;58.80;;;1.50;65.25;100911.94;8299782;28;20124;-85
2021/12/07 07:53:22;;;;;;;19.77;10.40;;;3.40;58.90;;;1.36;65.42;100883.00;8285602;28;20124;-85
2021/12/07 07:57:43;;;;;;;17.20;9.60;;;3.30;58.80;;;1.56;65.48;100914.41;8298466;28;20128;-85
2021/12/07 08:02:06;;;;;;;21.42;11.85;;;3.40;58.80;;;1.48;65.55;100906.78;8295865;28;20129;-84
2021/12/07 08:06:29;;;;;;;17.50;9.40;;;3.50;58.90;;;1.66;65.32;100928.00;8288631;28;20561;-85
2021/12/07 08:10:51;;;;;;;17.45;9.48;;;3.50;58.90;;;1.57;65.64;100908.41;8278677;28;20048;-83
2021/12/07 08:15:17;;;;;;;19.33;10.30;;;3.50;59.00;;;1.69;65.43;100928.78;8286843;28;20063;-83
2021/12/07 08:19:40;;;;;;;16.80;9.18;;;3.50;59.00;;;1.72;65.46;100921.00;8303112;28;20056;-84
2021/12/07 08:24:02;;;;;;;19.23;11.82;;;3.60;59.00;;;1.77;65.45;100936.41;8287821;28;20037;-84
2021/12/07 08:28:24;;;;;;;16.70;9.02;;;3.60;59.00;;;1.72;65.28;100928.75;8282496;28;20128;-84
2021/12/07 08:32:47;;;;;;;20.85;12.15;;;3.50;58.90;;;1.72;65.81;100920.19;8305575;28;20045;-85
2021/12/07 08:37:09;;;;;;;20.05;10.90;;;3.60;59.10;;;1.65;65.45;100906.56;8282615;28;20121;-85
2021/12/07 08:41:31;;;;;;;26.02;14.00;;;3.50;59.00;;;1.80;65.65;100931.19;8291463;28;20417;-80
2021/12/07 08:45:55;;;;;;;19.30;10.48;;;3.60;59.00;;;1.71;65.56;100915.91;8309715;28;20059;-83
2021/12/07 08:50:21;;;;;;;22.15;12.05;;;3.50;58.80;;;1.71;65.81;100924.47;8294128;28;20132;-83
2021/12/07 09:03:48;;;;;;;18.52;10.98;;;3.60;58.90;;;1.80;65.75;100938.91;8298829;28;20474;-83
2021/12/07 09:08:10;;;;;;;19.15;10.32;;;3.60;58.90;;;1.68;65.83;100911.66;8281255;28;20040;-83
2021/12/07 09:12:32;;;;;;;23.15;12.40;;;3.80;59.10;;;1.82;65.40;100941.50;8296998;28;20055;-84
2021/12/07 09:16:54;;;;;;;18.08;11.32;;;3.70;59.00;;;1.70;65.85;100924.50;8290090;28;20582;-89
2021/12/07 09:21:17;;;;;;;21.25;10.45;;;3.70;59.00;;;1.77;65.68;100924.38;8287723;28;20050;-88
2021/12/07 09:29:56;;;;;;;20.27;11.68;;;3.80;59.00;;;1.98;65.77;100955.81;8120536;23;20422;-88
2021/12/07 09:34:19;;;;;;;17.48;10.00;;;3.80;59.10;;;1.99;65.48;100942.91;8299515;28;20140;-88
2021/12/07 09:43:17;;;;;;;17.20;9.82;;;3.80;59.00;;;1.70;65.64;100894.47;7531862;23;20068;-90
2021/12/07 09:47:38;;;;;;;17.83;10.15;;;4.20;59.30;;;1.74;65.66;100897.84;8300721;28;20120;-87
2021/12/07 09:52:00;;;;;;;19.08;10.35;;;3.80;59.10;;;2.10;65.72;100947.03;8309236;23;21249;-82
2021/12/07 09:56:23;;;;;;;19.67;12.10;;;3.90;58.90;;;2.11;65.71;100951.31;8279174;28;20048;-85
2021/12/07 10:00:46;;;;;;;19.70;10.93;;;3.90;59.00;;;2.15;65.88;100958.94;8300416;28;20044;-84
2021/12/07 10:05:08;;;;;;;20.35;11.10;;;4.00;59.00;;;2.10;65.87;100947.03;8279095;28;20238;-84
2021/12/07 10:09:30;;;;;;;21.30;11.55;;;4.10;59.00;;;2.15;66.00;100951.22;8276751;28;20041;-85
2021/12/07 10:13:53;;;;;;;16.63;9.52;;;4.00;59.00;;;2.15;65.74;100943.50;8256044;28;20468;-85
2021/12/07 10:18:18;;;;;;;17.20;10.57;;;4.00;58.90;;;2.20;65.79;100952.00;8260541;28;20627;-84
2021/12/07 10:22:42;;;;;;;24.83;13.57;;;4.00;58.90;;;2.13;65.81;100928.94;8274055;28;20141;-85
2021/12/07 10:27:06;;;;;;;20.05;11.07;;;4.00;58.90;;;2.14;65.56;100939.22;8269030;28;20121;-84
2021/12/07 10:31:51;;;;;;;19.83;10.65;;;4.10;58.90;;;2.17;66.12;100941.75;8259585;28;20618;-84
2021/12/07 10:36:25;;;;;;;29.02;15.98;;;4.00;58.90;;;2.15;65.74;100940.91;8264489;28;20125;-86
2021/12/07 10:41:01;;;;;;;29.63;15.10;;;4.10;59.00;;;2.17;66.04;100934.03;8248669;28;20129;-84
2021/12/07 10:45:28;;;;;;;21.57;12.27;;;4.10;58.90;;;2.19;65.94;100934.00;8259685;28;20503;-84
2021/12/07 10:49:55;;;;;;;23.17;11.68;;;4.00;58.80;;;2.24;65.71;100931.34;8247182;28;20125;-84
2021/12/07 10:54:21;;;;;;;18.63;11.45;;;4.10;59.20;;;2.19;65.63;100927.13;8272948;28;20219;-84
2021/12/07 10:59:00;;;;;;;27.40;14.52;;;4.10;58.90;;;2.24;65.63;100926.19;8261971;28;20125;-84
2021/12/07 11:03:25;;;;;;;23.88;12.57;;;4.10;58.90;;;2.28;65.68;100927.84;8260328;28;20137;-84
2021/12/07 11:07:48;;;;;;;26.15;14.57;;;4.10;58.90;;;2.28;65.88;100917.53;8262961;28;20042;-84
2021/12/07 11:12:14;;;;;;;21.38;12.15;;;4.10;58.80;;;2.10;65.93;100888.63;8263642;28;20124;-84
2021/12/07 11:16:40;;;;;;;23.17;12.60;;;4.20;58.80;;;2.29;65.70;100914.06;8273357;28;20125;-84
2021/12/07 11:21:06;;;;;;;24.95;13.98;;;4.10;58.80;;;2.30;65.60;100903.75;8272308;28;20044;-84
2021/12/07 11:30:17;;;;;;;23.38;12.82;;;4.20;58.80;;;2.38;65.77;100924.22;8266494;28;20414;-84
2021/12/07 11:34:41;;;;;;;23.92;13.82;;;4.20;58.90;;;2.37;65.88;100913.03;8285458;28;20421;-84
2021/12/07 11:39:21;;;;;;;22.85;12.38;;;4.20;58.90;;;2.43;66.03;100914.66;8268544;28;20052;-84
2021/12/07 11:43:56;;;;;;;19.88;11.48;;;4.20;58.90;;;2.39;66.02;100905.31;8290058;28;20132;-84
2021/12/07 11:48:17;;;;;;;24.00;14.25;;;4.30;58.90;;;2.47;65.79;100913.72;8256644;28;20129;-84
2021/12/07 11:52:39;;;;;;;20.00;11.40;;;4.30;59.00;;;2.47;65.52;100911.16;8286049;28;20129;-83
2021/12/07 11:57:05;;;;;;;22.52;13.23;;;4.30;58.90;;;2.51;65.52;100912.81;8244026;28;20125;-83
2021/12/07 12:01:26;;;;;;;28.20;14.63;;;4.30;58.90;;;2.50;65.66;100897.38;8284201;28;20142;-85
2021/12/07 12:05:50;;;;;;;20.70;11.63;;;4.30;58.80;;;2.56;65.54;100905.81;8259384;28;20046;-83
2021/12/07 12:10:15;;;;;;;21.13;12.98;;;4.40;58.80;;;2.51;65.88;100889.63;8267904;28;20045;-83
2021/12/07 12:15:21;;;;;;;23.65;13.60;;;4.40;58.80;;;2.56;65.68;100903.25;8265870;28;20558;-83
2021/12/07 12:20:01;;;;;;;21.80;11.95;;;4.40;58.80;;;2.48;65.53;100886.22;8271327;28;20042;-83
2021/12/07 12:24:38;;;;;;;23.00;13.00;;;4.40;58.70;;;2.60;65.56;100893.75;8253801;28;20487;-83
2021/12/07 12:29:13;;;;;;;23.98;13.18;;;4.40;58.80;;;2.60;65.87;100888.59;8279252;28;20124;-83
2021/12/07 12:34:13;;;;;;;26.45;15.15;;;4.40;58.80;;;2.62;66.02;100904.88;8281384;28;20120;-84
2021/12/07 12:38:34;;;;;;;22.52;12.48;;;4.50;58.80;;;2.64;65.93;100893.63;8269477;28;20132;-83
2021/12/07 12:42:57;;;;;;;21.27;11.65;;;4.50;58.70;;;2.63;66.03;100881.63;8276655;28;20048;-83
2021/12/07 12:47:23;;;;;;;23.30;13.23;;;4.50;58.70;;;2.67;65.54;100879.81;8277774;28;20464;-83
2021/12/07 12:51:51;;;;;;;22.40;11.88;;;4.50;59.10;;;2.69;65.90;100885.81;8274683;28;20132;-83
2021/12/07 12:56:23;;;;;;;23.63;12.68;;;4.50;58.70;;;2.69;65.67;100870.34;8257327;28;20578;-83
2021/12/07 13:01:24;;;;;;;20.75;11.25;;;4.50;58.70;;;2.69;65.94;100872.91;8258428;28;20053;-83
2021/12/07 13:06:02;;;;;;;21.80;12.40;;;4.50;58.70;;;2.65;65.60;100866.97;8265617;28;20136;-84
2021/12/07 13:10:24;;;;;;;22.17;11.52;;;4.50;58.70;;;2.62;65.72;100856.75;8281584;28;20578;-83
2021/12/07 13:14:49;;;;;;;21.63;12.07;;;4.50;58.70;;;2.79;65.78;100889.06;8262469;28;20048;-83
2021/12/07 13:19:10;;;;;;;20.95;11.75;;;4.60;58.80;;;2.72;65.70;100890.91;8272031;28;20045;-83
2021/12/07 13:23:32;;;;;;;25.05;12.95;;;4.60;58.70;;;2.76;65.68;100894.28;8260976;28;20125;-83
2021/12/07 13:28:04;;;;;;;25.10;12.35;;;4.60;58.60;;;2.76;65.59;100907.19;8265350;28;20041;-82
2021/12/07 13:32:26;;;;;;;22.40;11.00;;;4.60;58.60;;;2.75;65.69;100908.03;8277792;28;20144;-82
2021/12/07 13:37:11;;;;;;;29.30;15.13;;;4.60;58.60;;;2.64;65.55;100896.19;8278168;28;20585;-84
2021/12/07 13:41:34;;;;;;;28.27;14.53;;;4.60;58.60;;;2.70;65.66;100912.44;8267762;28;20053;-82
2021/12/07 13:46:21;;;;;;;30.58;15.73;;;4.60;58.60;;;2.67;65.82;100905.59;8264279;28;20124;-82
2021/12/07 13:50:42;;;;;;;24.17;13.82;;;4.60;58.50;;;2.62;65.40;100903.16;8255938;28;20157;-82
2021/12/07 13:55:18;;;;;;;23.40;13.00;;;4.60;58.60;;;2.69;65.59;100910.75;8255455;28;20454;-83
2021/12/07 13:59:40;;;;;;;;;;;4.50;58.90;;;2.68;65.59;100911.63;8257245;28;20245;-82
2021/12/07 14:04:05;;;;;;;23.85;12.65;;;4.60;58.60;;;2.66;65.66;100920.22;8252173;28;20008;-83
2021/12/07 14:08:28;;;;;;;22.47;11.67;;;4.50;58.50;;;2.70;65.76;100926.19;8276835;28;20054;-83
2021/12/07 14:12:53;;;;;;;26.73;13.45;;;4.70;58.60;;;2.62;65.40;100910.03;8270838;28;20064;-83
2021/12/07 14:17:17;;;;;;;23.67;14.10;;;4.60;58.60;;;2.72;65.52;100923.56;8261008;28;20129;-84
2021/12/07 14:21:40;;;;;;;22.30;11.52;;;4.60;58.60;;;2.77;65.59;100926.91;8234878;28;20049;-83
2021/12/07 14:26:11;;;;;;;20.60;11.98;;;4.50;58.60;;;2.81;65.47;100944.88;8257436;28;20042;-83
2021/12/07 14:30:36;;;;;;;15.80;9.90;;;4.60;58.60;;;2.77;65.75;100943.22;8262720;28;20037;-83
2021/12/07 14:34:59;;;;;;;21.60;11.70;;;4.60;58.60;;;2.80;65.55;100938.00;8286330;28;20561;-84
2021/12/07 14:39:30;;;;;;;27.42;12.63;;;4.60;58.50;;;2.80;65.65;100943.16;8263340;28;20051;-84
2021/12/07 14:43:53;;;;;;;22.50;11.05;;;4.60;58.50;;;2.71;65.48;100942.50;8244400;28;20125;-84
2021/12/07 14:48:15;;;;;;;18.13;9.82;;;4.60;58.50;;;2.69;65.79;100939.94;8260546;28;20120;-85
2021/12/07 14:52:37;;;;;;;21.25;11.70;;;4.60;58.60;;;2.82;65.63;100948.31;8254955;28;20043;-84
2021/12/07 14:56:59;;;;;;;19.80;11.35;;;4.60;58.60;;;2.87;65.56;100959.38;8243240;28;20203;-84
2021/12/07 15:01:25;;;;;;;21.13;11.63;;;4.70;58.60;;;2.81;65.44;100942.31;8284724;28;20069;-83
2021/12/07 15:05:47;;;;;;;23.73;11.85;;;4.60;58.50;;;2.82;65.45;100944.00;8261061;28;20114;-83
2021/12/07 15:10:14;;;;;;;21.88;11.68;;;4.70;58.50;;;2.84;65.52;100949.13;8255612;28;20137;-83
2021/12/07 15:14:36;;;;;;;19.48;10.05;;;4.70;58.50;;;2.86;65.76;100955.09;8274935;28;20048;-83
2021/12/07 15:18:58;;;;;;;21.23;11.93;;;4.70;58.50;;;2.84;65.92;100956.88;8252343;28;20136;-84
2021/12/07 15:23:20;;;;;;;25.60;12.07;;;4.70;58.50;;;2.86;65.39;100968.84;8257904;28;20137;-83
2021/12/07 15:27:52;;;;;;;24.80;12.65;;;4.70;58.50;;;2.89;65.36;100980.84;8264734;28;20499;-83
2021/12/07 15:32:14;;;;;;;23.90;12.75;;;4.70;58.50;;;2.83;65.41;100965.47;8290070;28;20484;-83
2021/12/07 15:36:48;;;;;;;24.08;12.52;;;4.70;58.50;;;2.94;65.67;100971.25;8268606;28;20125;-83
2021/12/07 15:41:11;;;;;;;20.25;11.27;;;4.70;58.50;;;2.95;65.80;100978.13;8251827;28;20048;-83
2021/12/07 15:45:33;;;;;;;21.38;10.88;;;4.70;58.50;;;2.94;65.25;100976.41;8257213;28;20120;-83
2021/12/07 15:49:58;;;;;;;18.58;10.68;;;4.80;58.50;;;2.88;65.32;100950.75;8261654;28;20117;-83
2021/12/07 15:54:20;;;;;;;19.88;10.52;;;4.80;58.60;;;2.84;65.34;100938.81;8306242;23;20140;-88
2021/12/07 15:58:43;;;;;;;20.65;11.80;;;4.80;58.50;;;2.80;65.78;100934.59;8297484;28;20128;-87
2021/12/07 16:03:14;;;;;;;24.77;12.80;;;4.80;58.40;;;2.81;65.44;100926.00;8292312;28;20037;-86
2021/12/07 16:07:43;;;;;;;21.75;11.90;;;4.70;58.40;;;2.80;65.53;100927.69;8302517;28;20120;-86
2021/12/07 16:12:17;;;;;;;23.35;11.70;;;4.70;58.40;;;2.81;65.25;100918.25;8279614;28;20136;-86
2021/12/07 16:16:39;;;;;;;22.08;12.18;;;4.70;58.40;;;2.87;65.29;100920.69;8285220;28;20593;-90
2021/12/07 16:21:04;;;;;;;21.27;11.48;;;4.70;58.40;;;2.87;65.54;100907.81;8268465;28;20041;-87
2021/12/07 16:25:26;;;;;;;20.80;11.52;;;4.70;58.40;;;2.65;65.51;100871.31;8287206;28;20128;-87
2021/12/07 16:29:47;;;;;;;22.73;12.07;;;4.70;58.40;;;2.77;65.21;100890.81;8288555;28;20125;-86
2021/12/07 16:34:09;;;;;;;25.58;13.27;;;4.70;58.40;;;2.78;65.14;100892.50;8299926;28;20552;-87
2021/12/07 16:38:31;;;;;;;26.63;14.55;;;4.50;58.40;;;2.77;65.26;100906.28;8280693;28;20132;-88
2021/12/07 16:42:55;;;;;;;22.30;11.80;;;4.70;58.50;;;2.75;65.64;100892.56;8284912;28;20063;-87
2021/12/07 16:47:18;;;;;;;21.35;11.70;;;4.60;58.40;;;2.63;65.61;100889.34;8295461;28;20124;-87
2021/12/07 16:51:40;;;;;;;22.95;11.63;;;4.60;58.40;;;2.77;65.47;100901.97;8295123;28;20134;-87
2021/12/07 16:56:04;;;;;;;23.40;12.73;;;4.60;58.40;;;2.69;65.63;100897.84;8299173;28;20133;-87
2021/12/07 17:00:28;;;;;;;22.70;12.57;;;4.70;58.40;;;2.73;65.29;100904.63;8298739;28;20060;-88
2021/12/07 17:04:50;;;;;;;17.58;9.60;;;4.50;58.30;;;2.64;65.32;100880.75;8285152;28;20470;-87
2021/12/07 17:09:15;;;;;;;26.33;12.82;;;4.50;58.40;;;2.61;65.46;100875.66;8283753;28;20133;-86
2021/12/07 17:13:37;;;;;;;23.63;11.93;;;4.60;58.40;;;2.66;65.38;100883.28;8281786;28;20449;-87
2021/12/07 17:17:58;;;;;;;19.80;11.10;;;4.70;58.40;;;2.67;65.47;100874.66;8289844;28;20467;-87
2021/12/07 17:22:20;;;;;;;20.90;10.02;;;4.60;58.50;;;2.62;65.25;100869.63;8282185;28;20128;-87
2021/12/07 17:26:42;;;;;;;22.42;11.70;;;4.50;58.40;;;2.81;65.18;100903.63;8280139;28;20132;-86
2021/12/07 17:31:04;;;;;;;23.92;12.27;;;4.60;58.40;;;2.71;65.40;100875.47;8283744;28;20410;-85
2021/12/07 17:35:27;;;;;;;22.38;11.63;;;4.60;58.40;;;2.76;65.43;100878.81;8280742;28;20038;-87
2021/12/07 17:39:50;;;;;;;21.35;11.23;;;4.60;58.40;;;2.66;65.26;100858.34;8278940;28;20052;-87
2021/12/07 17:44:12;;;;;;;22.77;12.48;;;4.60;58.40;;;2.76;65.31;100868.50;8294090;28;20112;-87
2021/12/07 17:48:34;;;;;;;22.38;12.48;;;4.50;58.40;;;2.78;65.25;100864.13;8283029;28;20042;-87
2021/12/07 17:52:55;;;;;;;19.88;11.75;;;4.40;58.40;;;2.70;65.29;100840.25;8267368;28;20443;-87
2021/12/07 17:57:17;;;;;;;27.02;14.18;;;4.80;58.50;;;2.77;65.54;100854.72;8294873;28;20128;-87
2021/12/07 18:01:39;;;;;;;23.67;12.18;;;4.60;58.50;;;2.59;65.10;100831.03;8279953;28;20049;-87
2021/12/07 18:06:01;;;;;;;23.30;12.57;;;4.60;58.40;;;2.80;65.34;100877.84;8272682;28;20439;-86
2021/12/07 18:10:25;;;;;;;28.75;14.48;;;4.60;58.50;;;2.82;65.28;100868.38;8297882;28;20591;-86
2021/12/07 18:14:48;;;;;;;24.33;13.07;;;4.60;58.50;;;2.76;65.31;100868.50;8287396;28;20469;-86
2021/12/07 18:19:10;;;;;;;20.95;11.23;;;4.60;58.50;;;2.64;65.21;100851.53;8294616;28;20124;-86
2021/12/07 18:23:32;;;;;;;20.88;11.70;;;4.60;58.60;;;2.77;65.63;100870.19;8289777;28;20683;-86
2021/12/07 18:27:54;;;;;;;22.05;11.63;;;4.60;58.60;;;2.80;65.39;100864.97;8272279;28;20048;-85
2021/12/07 18:32:16;;;;;;;23.92;12.00;;;4.70;58.60;;;2.86;65.21;100886.34;8285056;28;20124;-86
2021/12/07 18:36:38;;;;;;;22.02;11.98;;;4.60;58.50;;;2.67;65.13;100854.03;8270281;28;20063;-86
2021/12/07 18:41:05;;;;;;;22.23;11.52;;;4.60;58.50;;;2.75;65.42;100869.38;8284434;28;20122;-86
2021/12/07 18:45:29;;;;;;;25.05;12.75;;;4.70;58.60;;;2.86;65.50;100862.25;8277327;28;20085;-86
2021/12/07 18:49:51;;;;;;;29.90;14.15;;;4.50;58.50;;;2.90;65.50;100856.16;8279082;28;20125;-86
2021/12/07 18:54:12;;;;;;;24.73;12.23;;;4.70;58.50;;;2.91;65.45;100868.16;8299294;28;20117;-86
2021/12/07 18:58:37;;;;;;;26.48;13.85;;;4.70;58.50;;;2.81;65.42;100838.31;8298632;28;20137;-86
2021/12/07 19:02:59;;;;;;;23.93;12.30;;;4.70;58.50;;;2.90;65.12;100853.56;8277819;28;20064;-86
2021/12/07 19:07:21;;;;;;;25.17;13.10;;;4.70;58.50;;;2.80;65.32;100837.44;8279775;28;20038;-85
2021/12/07 19:11:43;;;;;;;27.98;13.15;;;4.90;58.60;;;2.89;65.39;100836.41;8270724;28;20057;-86
2021/12/07 19:16:06;;;;;;;24.73;12.70;;;4.70;58.50;;;2.63;65.25;100775.94;8287097;28;20057;-86
2021/12/07 19:20:29;;;;;;;30.40;14.68;;;4.70;58.50;;;2.73;65.33;100807.53;8289821;28;20052;-86
2021/12/07 19:24:50;;;;;;;26.40;13.98;;;4.70;58.50;;;2.73;65.14;100796.34;8291903;28;20473;-86
2021/12/07 19:29:12;;;;;;;31.00;15.52;;;4.60;58.40;;;2.84;65.56;100822.78;8291588;28;20133;-86
2021/12/07 19:33:34;;;;;;;31.35;14.80;;;4.60;58.50;;;2.77;65.39;100798.00;8296464;28;20058;-86
2021/12/07 19:37:59;;;;;;;25.48;13.82;;;4.60;58.60;;;2.82;65.70;100793.59;8289258;28;20038;-85
2021/12/07 19:42:21;;;;;;;28.35;14.50;;;4.60;58.50;;;2.71;65.50;100764.63;8288873;28;20041;-86
2021/12/07 19:46:42;;;;;;;30.27;14.88;;;4.70;58.60;;;2.71;65.36;100746.56;8266700;28;20315;-85
2021/12/07 19:51:12;;;;;;;29.80;13.88;;;4.70;58.50;;;2.71;65.42;100750.00;8300272;28;20578;-86
2021/12/07 19:55:34;;;;;;;28.35;13.93;;;4.60;58.50;;;2.69;65.30;100733.69;8276881;28;20046;-86
2021/12/07 19:59:56;;;;;;;31.40;14.48;;;4.60;58.60;;;2.83;65.25;100772.91;8281212;28;20048;-85
2021/12/07 20:04:20;;;;;;;29.38;13.73;;;4.60;58.60;;;2.74;65.09;100752.50;8276672;28;20454;-85
2021/12/07 20:08:43;;;;;;;34.58;17.17;;;4.60;58.60;;;2.66;65.55;100755.25;8297240;28;20128;-85
2021/12/07 20:13:06;;;;;;;30.83;15.38;;;4.70;58.70;;;2.85;65.64;100776.31;8272299;28;20038;-86
2021/12/07 20:17:27;;;;;;;32.30;13.75;;;4.60;58.60;;;2.72;65.32;100746.50;8293647;28;20128;-85
2021/12/07 20:21:49;;;;;;;28.67;14.32;;;4.90;58.80;;;2.69;65.32;100738.00;8292600;28;20049;-85
2021/12/07 20:26:18;;;;;;;28.00;13.73;;;4.60;58.60;;;2.68;65.45;100731.16;8297068;28;20037;-85
2021/12/07 20:30:39;;;;;;;28.02;13.38;;;4.60;58.60;;;2.79;65.89;100754.97;8272788;28;20503;-86
2021/12/07 20:35:02;;;;;;;38.42;16.63;;;4.60;58.60;;;2.76;65.38;100748.16;8296978;28;20129;-85
2021/12/07 20:39:25;;;;;;;28.88;13.77;;;4.60;58.60;;;2.82;65.56;100755.75;8295281;28;20055;-85
2021/12/07 20:43:53;;;;;;;28.17;13.23;;;4.60;58.70;;;2.83;65.51;100749.69;8287112;28;20061;-85
2021/12/07 20:48:15;;;;;;;26.10;13.00;;;4.50;58.60;;;2.75;65.55;100732.72;8275501;28;20109;-86
2021/12/07 20:52:37;;;;;;;40.92;17.20;;;4.60;58.70;;;2.69;65.46;100727.69;8288122;28;20044;-85
2021/12/07 20:56:59;;;;;;;28.90;14.60;;;4.60;58.70;;;2.66;65.23;100726.88;8284198;28;20064;-85